sensor_id;sensor_type;location;lat;lon;timestamp;temperature;humidity
19781;DHT22;10050;55.492;13.506;2022-10-04T00:00:37;11.30;99.90
19781;DHT22;10050;55.492;13.506;2022-10-04T00:03:19;11.30;99.90
19781;DHT22;10050;55.492;13.506;2022-10-04T00:05:49;11.30;99.90
19781;DHT22;10050;55.492;13.506;2022-10-04T00:08:30;11.30;99.90
19781;DHT22;10050;55.492;13.506;2022-10-04T00:11:29;11.40;99.90
19781;DHT22;10050;55.492;13.506;2022-10-04T00:14:04;11.40;99.90
19781;DHT22;10050;55.492;13.506;2022-10-04T00:16:34;11.40;99.90
19781;DHT22;10050;55.492;13.506;2022-10-04T00:24:28;11.40;99.90
19781;DHT22;10050;55.492;13.506;2022-10-04T00:27:20;11.40;99.90
19781;DHT22;10050;55.492;13.506;2022-10-04T00:30:19;11.40;99.90
19781;DHT22;10050;55.492;13.506;2022-10-04T00:32:59;11.40;99.90
19781;DHT22;10050;55.492;13.506;2022-10-04T00:43:13;11.40;99.90
19781;DHT22;10050;55.492;13.506;2022-10-04T00:45:45;11.40;99.90
19781;DHT22;10050;55.492;13.506;2022-10-04T00:48:23;11.40;99.90
19781;DHT22;10050;55.492;13.506;2022-10-04T00:51:19;11.40;99.90
19781;DHT22;10050;55.492;13.506;2022-10-04T00:53:52;11.40;99.90
19781;DHT22;10050;55.492;13.506;2022-10-04T00:56:41;11.40;99.90
19781;DHT22;10050;55.492;13.506;2022-10-04T00:59:28;11.40;99.90
19781;DHT22;10050;55.492;13.506;2022-10-04T01:02:17;11.40;99.90
19781;DHT22;10050;55.492;13.506;2022-10-04T01:05:09;11.40;99.90
19781;DHT22;10050;55.492;13.506;2022-10-04T01:07:50;11.40;99.90
19781;DHT22;10050;55.492;13.506;2022-10-04T01:10:30;11.40;99.90
19781;DHT22;10050;55.492;13.506;2022-10-04T01:13:08;11.30;99.90
19781;DHT22;10050;55.492;13.506;2022-10-04T01:21:07;11.30;99.90
19781;DHT22;10050;55.492;13.506;2022-10-04T01:24:26;11.30;99.90
19781;DHT22;10050;55.492;13.506;2022-10-04T01:31:34;11.30;99.90
19781;DHT22;10050;55.492;13.506;2022-10-04T01:34:01;11.30;99.90
19781;DHT22;10050;55.492;13.506;2022-10-04T01:36:27;11.30;99.90
19781;DHT22;10050;55.492;13.506;2022-10-04T01:38:54;11.30;99.90
19781;DHT22;10050;55.492;13.506;2022-10-04T01:41:24;11.30;99.90
19781;DHT22;10050;55.492;13.506;2022-10-04T01:43:57;11.30;99.90
19781;DHT22;10050;55.492;13.506;2022-10-04T01:46:27;11.30;99.90
19781;DHT22;10050;55.492;13.506;2022-10-04T01:48:56;11.30;99.90
19781;DHT22;10050;55.492;13.506;2022-10-04T01:51:33;11.30;99.90
19781;DHT22;10050;55.492;13.506;2022-10-04T01:54:08;11.20;99.90
19781;DHT22;10050;55.492;13.506;2022-10-04T01:56:46;11.20;99.90
19781;DHT22;10050;55.492;13.506;2022-10-04T01:59:22;11.20;99.90
19781;DHT22;10050;55.492;13.506;2022-10-04T02:01:49;11.20;99.90
19781;DHT22;10050;55.492;13.506;2022-10-04T02:04:18;11.20;99.90
19781;DHT22;10050;55.492;13.506;2022-10-04T02:06:47;11.20;99.90
19781;DHT22;10050;55.492;13.506;2022-10-04T02:09:19;11.20;99.90
19781;DHT22;10050;55.492;13.506;2022-10-04T02:11:49;11.20;99.90
19781;DHT22;10050;55.492;13.506;2022-10-04T02:14:27;11.20;99.90
19781;DHT22;10050;55.492;13.506;2022-10-04T02:16:53;11.20;99.90
19781;DHT22;10050;55.492;13.506;2022-10-04T02:19:25;11.20;99.90
19781;DHT22;10050;55.492;13.506;2022-10-04T02:21:53;11.20;99.90
19781;DHT22;10050;55.492;13.506;2022-10-04T02:24:19;11.20;99.90
19781;DHT22;10050;55.492;13.506;2022-10-04T02:26:51;11.20;99.90
19781;DHT22;10050;55.492;13.506;2022-10-04T02:29:19;11.10;99.90
19781;DHT22;10050;55.492;13.506;2022-10-04T02:31:46;11.10;99.90
19781;DHT22;10050;55.492;13.506;2022-10-04T02:34:31;11.10;99.90
19781;DHT22;10050;55.492;13.506;2022-10-04T02:36:57;11.20;99.90
19781;DHT22;10050;55.492;13.506;2022-10-04T02:39:48;11.20;99.90
19781;DHT22;10050;55.492;13.506;2022-10-04T02:44:57;11.20;99.90
19781;DHT22;10050;55.492;13.506;2022-10-04T02:47:29;11.20;99.90
19781;DHT22;10050;55.492;13.506;2022-10-04T02:50:18;11.20;99.90
19781;DHT22;10050;55.492;13.506;2022-10-04T02:52:49;11.30;99.90
19781;DHT22;10050;55.492;13.506;2022-10-04T02:55:30;11.30;99.90
19781;DHT22;10050;55.492;13.506;2022-10-04T02:57:57;11.30;99.90
19781;DHT22;10050;55.492;13.506;2022-10-04T03:00:29;11.30;99.90
19781;DHT22;10050;55.492;13.506;2022-10-04T03:03:14;11.30;99.90
19781;DHT22;10050;55.492;13.506;2022-10-04T03:08:20;11.40;99.90
19781;DHT22;10050;55.492;13.506;2022-10-04T03:10:46;11.40;99.90
19781;DHT22;10050;55.492;13.506;2022-10-04T03:13:12;11.40;99.90
19781;DHT22;10050;55.492;13.506;2022-10-04T03:15:41;11.40;99.90
19781;DHT22;10050;55.492;13.506;2022-10-04T03:18:08;11.50;99.90
19781;DHT22;10050;55.492;13.506;2022-10-04T03:20:38;11.50;99.90
19781;DHT22;10050;55.492;13.506;2022-10-04T03:23:05;11.50;99.90
19781;DHT22;10050;55.492;13.506;2022-10-04T03:25:48;11.50;99.90
19781;DHT22;10050;55.492;13.506;2022-10-04T03:28:16;11.50;99.90
19781;DHT22;10050;55.492;13.506;2022-10-04T03:30:46;11.50;99.90
19781;DHT22;10050;55.492;13.506;2022-10-04T03:33:20;11.50;99.90
19781;DHT22;10050;55.492;13.506;2022-10-04T03:35:50;11.50;99.90
19781;DHT22;10050;55.492;13.506;2022-10-04T03:38:17;11.40;99.90
19781;DHT22;10050;55.492;13.506;2022-10-04T03:40:49;11.40;99.90
19781;DHT22;10050;55.492;13.506;2022-10-04T03:43:18;11.40;99.90
19781;DHT22;10050;55.492;13.506;2022-10-04T03:45:45;11.30;99.90
19781;DHT22;10050;55.492;13.506;2022-10-04T03:48:13;11.30;99.90
19781;DHT22;10050;55.492;13.506;2022-10-04T03:50:45;11.30;99.90
19781;DHT22;10050;55.492;13.506;2022-10-04T03:53:26;11.30;99.90
19781;DHT22;10050;55.492;13.506;2022-10-04T03:55:52;11.30;99.90
19781;DHT22;10050;55.492;13.506;2022-10-04T03:58:19;11.30;99.90
19781;DHT22;10050;55.492;13.506;2022-10-04T04:01:03;11.20;99.90
19781;DHT22;10050;55.492;13.506;2022-10-04T04:03:34;11.20;99.90
19781;DHT22;10050;55.492;13.506;2022-10-04T04:06:13;11.20;99.90
19781;DHT22;10050;55.492;13.506;2022-10-04T04:08:42;11.20;99.90
19781;DHT22;10050;55.492;13.506;2022-10-04T04:11:17;11.20;99.90
19781;DHT22;10050;55.492;13.506;2022-10-04T04:13:53;11.10;99.90
19781;DHT22;10050;55.492;13.506;2022-10-04T04:16:22;11.10;99.90
19781;DHT22;10050;55.492;13.506;2022-10-04T04:18:52;11.20;99.90
19781;DHT22;10050;55.492;13.506;2022-10-04T04:21:19;11.20;99.90
19781;DHT22;10050;55.492;13.506;2022-10-04T04:24:01;11.20;99.90
19781;DHT22;10050;55.492;13.506;2022-10-04T04:26:37;11.20;99.90
19781;DHT22;10050;55.492;13.506;2022-10-04T04:31:51;11.20;99.90
19781;DHT22;10050;55.492;13.506;2022-10-04T04:34:25;11.20;99.90
19781;DHT22;10050;55.492;13.506;2022-10-04T04:37:01;11.10;99.90
19781;DHT22;10050;55.492;13.506;2022-10-04T04:39:29;11.10;99.90
19781;DHT22;10050;55.492;13.506;2022-10-04T04:42:08;11.00;99.90
19781;DHT22;10050;55.492;13.506;2022-10-04T04:44:58;11.00;99.90
19781;DHT22;10050;55.492;13.506;2022-10-04T04:50:04;10.90;99.90
19781;DHT22;10050;55.492;13.506;2022-10-04T04:52:31;10.90;99.90
19781;DHT22;10050;55.492;13.506;2022-10-04T04:54:58;10.90;99.90
19781;DHT22;10050;55.492;13.506;2022-10-04T04:57:24;10.90;99.90
19781;DHT22;10050;55.492;13.506;2022-10-04T04:59:55;10.90;99.90
19781;DHT22;10050;55.492;13.506;2022-10-04T05:02:36;10.90;99.90
19781;DHT22;10050;55.492;13.506;2022-10-04T05:07:41;10.90;99.90
19781;DHT22;10050;55.492;13.506;2022-10-04T05:10:27;10.90;99.90
19781;DHT22;10050;55.492;13.506;2022-10-04T05:12:54;10.90;99.90
19781;DHT22;10050;55.492;13.506;2022-10-04T05:15:20;10.90;99.90
19781;DHT22;10050;55.492;13.506;2022-10-04T05:17:47;10.90;99.90
19781;DHT22;10050;55.492;13.506;2022-10-04T05:20:14;10.90;99.90
19781;DHT22;10050;55.492;13.506;2022-10-04T05:22:44;10.90;99.90
19781;DHT22;10050;55.492;13.506;2022-10-04T05:25:24;10.90;99.90
19781;DHT22;10050;55.492;13.506;2022-10-04T05:27:52;11.00;99.90
19781;DHT22;10050;55.492;13.506;2022-10-04T05:33:08;11.00;99.90
19781;DHT22;10050;55.492;13.506;2022-10-04T05:41:08;10.90;99.90
19781;DHT22;10050;55.492;13.506;2022-10-04T05:43:44;10.90;99.90
19781;DHT22;10050;55.492;13.506;2022-10-04T05:48:44;10.90;99.90
19781;DHT22;10050;55.492;13.506;2022-10-04T05:51:29;11.00;99.90
19781;DHT22;10050;55.492;13.506;2022-10-04T05:54:00;11.00;99.90
19781;DHT22;10050;55.492;13.506;2022-10-04T05:57:24;11.00;99.90
19781;DHT22;10050;55.492;13.506;2022-10-04T06:00:14;11.10;99.90
19781;DHT22;10050;55.492;13.506;2022-10-04T06:05:27;11.00;99.90
19781;DHT22;10050;55.492;13.506;2022-10-04T06:13:39;11.20;99.90
19781;DHT22;10050;55.492;13.506;2022-10-04T06:16:42;11.30;99.90
19781;DHT22;10050;55.492;13.506;2022-10-04T06:24:31;11.60;99.90
19781;DHT22;10050;55.492;13.506;2022-10-04T06:27:13;11.70;99.90
19781;DHT22;10050;55.492;13.506;2022-10-04T06:30:08;11.80;99.90
19781;DHT22;10050;55.492;13.506;2022-10-04T06:46:41;12.30;99.90
19781;DHT22;10050;55.492;13.506;2022-10-04T06:55:07;12.40;99.90
19781;DHT22;10050;55.492;13.506;2022-10-04T07:00:25;12.10;99.90
19781;DHT22;10050;55.492;13.506;2022-10-04T07:03:13;12.30;99.90
19781;DHT22;10050;55.492;13.506;2022-10-04T07:16:48;16.70;99.90
19781;DHT22;10050;55.492;13.506;2022-10-04T07:30:51;24.50;99.90
19781;DHT22;10050;55.492;13.506;2022-10-04T07:33:23;25.20;99.90
19781;DHT22;10050;55.492;13.506;2022-10-04T07:35:54;25.90;99.90
19781;DHT22;10050;55.492;13.506;2022-10-04T07:38:30;25.70;99.90
19781;DHT22;10050;55.492;13.506;2022-10-04T07:41:07;25.20;99.90
19781;DHT22;10050;55.492;13.506;2022-10-04T07:43:54;25.00;99.90
19781;DHT22;10050;55.492;13.506;2022-10-04T07:48:52;26.70;99.90
19781;DHT22;10050;55.492;13.506;2022-10-04T07:51:27;27.30;99.90
19781;DHT22;10050;55.492;13.506;2022-10-04T07:54:03;27.60;99.90
19781;DHT22;10050;55.492;13.506;2022-10-04T07:56:36;27.90;99.90
19781;DHT22;10050;55.492;13.506;2022-10-04T07:59:39;28.20;99.90
19781;DHT22;10050;55.492;13.506;2022-10-04T08:05:23;28.30;99.90
19781;DHT22;10050;55.492;13.506;2022-10-04T08:13:48;26.50;99.90
19781;DHT22;10050;55.492;13.506;2022-10-04T08:16:34;26.60;99.90
19781;DHT22;10050;55.492;13.506;2022-10-04T08:22:02;27.60;99.90
19781;DHT22;10050;55.492;13.506;2022-10-04T08:24:35;28.00;99.90
19781;DHT22;10050;55.492;13.506;2022-10-04T08:27:40;28.30;99.90
19781;DHT22;10050;55.492;13.506;2022-10-04T08:30:43;27.40;99.90
19781;DHT22;10050;55.492;13.506;2022-10-04T08:38:56;23.20;99.90
19781;DHT22;10050;55.492;13.506;2022-10-04T08:50:54;20.10;99.90
19781;DHT22;10050;55.492;13.506;2022-10-04T09:01:59;19.40;99.90
19781;DHT22;10050;55.492;13.506;2022-10-04T09:10:13;20.50;99.90
19781;DHT22;10050;55.492;13.506;2022-10-04T09:21:07;20.10;99.90
19781;DHT22;10050;55.492;13.506;2022-10-04T09:23:56;19.50;99.90
19781;DHT22;10050;55.492;13.506;2022-10-04T09:26:43;19.20;99.90
19781;DHT22;10050;55.492;13.506;2022-10-04T09:32:30;18.90;99.90
19781;DHT22;10050;55.492;13.506;2022-10-04T10:11:09;17.60;99.90
19781;DHT22;10050;55.492;13.506;2022-10-04T10:36:37;18.00;99.90
19781;DHT22;10050;55.492;13.506;2022-10-04T10:39:26;18.00;99.90
19781;DHT22;10050;55.492;13.506;2022-10-04T10:56:27;18.20;99.90
19781;DHT22;10050;55.492;13.506;2022-10-04T11:07:42;18.30;99.90
19781;DHT22;10050;55.492;13.506;2022-10-04T11:13:28;18.20;99.90
19781;DHT22;10050;55.492;13.506;2022-10-04T11:40:29;17.80;99.90
19781;DHT22;10050;55.492;13.506;2022-10-04T11:46:21;17.90;99.90
19781;DHT22;10050;55.492;13.506;2022-10-04T11:49:11;17.90;99.90
19781;DHT22;10050;55.492;13.506;2022-10-04T11:57:58;17.70;99.90
19781;DHT22;10050;55.492;13.506;2022-10-04T12:12:16;18.00;99.90
19781;DHT22;10050;55.492;13.506;2022-10-04T12:32:37;17.40;99.90
19781;DHT22;10050;55.492;13.506;2022-10-04T12:43:34;17.00;99.90
19781;DHT22;10050;55.492;13.506;2022-10-04T13:04:48;16.80;99.90
19781;DHT22;10050;55.492;13.506;2022-10-04T13:07:52;16.70;99.90
19781;DHT22;10050;55.492;13.506;2022-10-04T13:10:45;16.80;99.90
19781;DHT22;10050;55.492;13.506;2022-10-04T13:16:08;16.90;99.90
19781;DHT22;10050;55.492;13.506;2022-10-04T13:22:05;16.90;99.90
19781;DHT22;10050;55.492;13.506;2022-10-04T13:24:27;16.80;99.90
19781;DHT22;10050;55.492;13.506;2022-10-04T13:27:07;16.60;99.90
19781;DHT22;10050;55.492;13.506;2022-10-04T13:30:19;16.60;99.90
19781;DHT22;10050;55.492;13.506;2022-10-04T13:32:59;16.70;99.90
19781;DHT22;10050;55.492;13.506;2022-10-04T13:43:53;16.60;99.90
19781;DHT22;10050;55.492;13.506;2022-10-04T13:46:28;16.80;99.90
19781;DHT22;10050;55.492;13.506;2022-10-04T13:49:22;16.90;99.90
19781;DHT22;10050;55.492;13.506;2022-10-04T13:58:18;16.90;99.90
19781;DHT22;10050;55.492;13.506;2022-10-04T14:06:31;16.70;99.90
19781;DHT22;10050;55.492;13.506;2022-10-04T14:23:09;16.30;99.90
19781;DHT22;10050;55.492;13.506;2022-10-04T14:25:56;16.20;99.90
19781;DHT22;10050;55.492;13.506;2022-10-04T14:28:53;16.20;99.90
19781;DHT22;10050;55.492;13.506;2022-10-04T14:34:28;16.40;99.90
19781;DHT22;10050;55.492;13.506;2022-10-04T15:01:44;16.00;99.90
19781;DHT22;10050;55.492;13.506;2022-10-04T15:04:56;16.10;99.90
19781;DHT22;10050;55.492;13.506;2022-10-04T15:07:54;16.10;99.90
19781;DHT22;10050;55.492;13.506;2022-10-04T15:10:28;16.00;99.90
19781;DHT22;10050;55.492;13.506;2022-10-04T15:13:02;16.00;99.90
19781;DHT22;10050;55.492;13.506;2022-10-04T15:15:39;15.90;99.90
19781;DHT22;10050;55.492;13.506;2022-10-04T15:18:31;15.80;99.90
19781;DHT22;10050;55.492;13.506;2022-10-04T15:23:58;15.70;99.90
19781;DHT22;10050;55.492;13.506;2022-10-04T15:29:23;15.70;99.90
19781;DHT22;10050;55.492;13.506;2022-10-04T15:32:16;15.70;99.90
19781;DHT22;10050;55.492;13.506;2022-10-04T15:45:45;15.50;99.90
19781;DHT22;10050;55.492;13.506;2022-10-04T15:51:15;15.40;99.90
19781;DHT22;10050;55.492;13.506;2022-10-04T15:56:54;15.30;99.90
19781;DHT22;10050;55.492;13.506;2022-10-04T16:19:27;14.90;99.90
19781;DHT22;10050;55.492;13.506;2022-10-04T16:22:25;14.80;99.90
19781;DHT22;10050;55.492;13.506;2022-10-04T16:24:56;14.70;99.90
19781;DHT22;10050;55.492;13.506;2022-10-04T16:33:01;14.60;99.90
19781;DHT22;10050;55.492;13.506;2022-10-04T16:35:38;14.50;99.90
19781;DHT22;10050;55.492;13.506;2022-10-04T16:56:31;14.30;99.90
19781;DHT22;10050;55.492;13.506;2022-10-04T16:59:10;14.30;99.90
19781;DHT22;10050;55.492;13.506;2022-10-04T17:23:23;14.00;99.90
19781;DHT22;10050;55.492;13.506;2022-10-04T17:28:55;14.00;99.90
19781;DHT22;10050;55.492;13.506;2022-10-04T17:31:51;13.90;99.90
19781;DHT22;10050;55.492;13.506;2022-10-04T17:48:29;13.90;99.90
19781;DHT22;10050;55.492;13.506;2022-10-04T17:54:11;13.80;99.90
19781;DHT22;10050;55.492;13.506;2022-10-04T17:59:37;13.80;99.90
19781;DHT22;10050;55.492;13.506;2022-10-04T18:05:20;13.70;99.90
19781;DHT22;10050;55.492;13.506;2022-10-04T18:07:58;13.70;99.90
19781;DHT22;10050;55.492;13.506;2022-10-04T18:10:38;13.70;99.90
19781;DHT22;10050;55.492;13.506;2022-10-04T18:15:57;13.70;99.90
19781;DHT22;10050;55.492;13.506;2022-10-04T18:18:37;13.70;99.90
19781;DHT22;10050;55.492;13.506;2022-10-04T18:21:06;13.70;99.90
19781;DHT22;10050;55.492;13.506;2022-10-04T18:24:00;13.60;99.90
19781;DHT22;10050;55.492;13.506;2022-10-04T18:26:59;13.60;99.90
19781;DHT22;10050;55.492;13.506;2022-10-04T18:29:38;13.70;99.90
19781;DHT22;10050;55.492;13.506;2022-10-04T18:32:30;13.60;99.90
19781;DHT22;10050;55.492;13.506;2022-10-04T18:35:05;13.60;99.90
19781;DHT22;10050;55.492;13.506;2022-10-04T18:37:43;13.60;99.90
19781;DHT22;10050;55.492;13.506;2022-10-04T18:40:31;13.60;99.90
19781;DHT22;10050;55.492;13.506;2022-10-04T18:42:58;13.60;99.90
19781;DHT22;10050;55.492;13.506;2022-10-04T18:45:30;13.60;99.90
19781;DHT22;10050;55.492;13.506;2022-10-04T18:48:11;13.60;99.90
19781;DHT22;10050;55.492;13.506;2022-10-04T18:50:39;13.60;99.90
19781;DHT22;10050;55.492;13.506;2022-10-04T18:56:06;13.60;99.90
19781;DHT22;10050;55.492;13.506;2022-10-04T19:07:15;13.70;99.90
19781;DHT22;10050;55.492;13.506;2022-10-04T19:09:53;13.70;99.90
19781;DHT22;10050;55.492;13.506;2022-10-04T19:12:25;13.70;99.90
19781;DHT22;10050;55.492;13.506;2022-10-04T19:20:36;13.70;99.90
19781;DHT22;10050;55.492;13.506;2022-10-04T19:23:27;13.70;99.90
19781;DHT22;10050;55.492;13.506;2022-10-04T19:28:31;13.70;99.90
19781;DHT22;10050;55.492;13.506;2022-10-04T19:31:22;13.70;99.90
19781;DHT22;10050;55.492;13.506;2022-10-04T19:34:07;13.70;99.90
19781;DHT22;10050;55.492;13.506;2022-10-04T19:47:43;13.70;99.90
19781;DHT22;10050;55.492;13.506;2022-10-04T19:50:38;13.70;99.90
19781;DHT22;10050;55.492;13.506;2022-10-04T19:53:21;13.80;99.90
19781;DHT22;10050;55.492;13.506;2022-10-04T19:55:55;13.70;99.90
19781;DHT22;10050;55.492;13.506;2022-10-04T19:58:23;13.80;99.90
19781;DHT22;10050;55.492;13.506;2022-10-04T20:00:51;13.70;99.90
19781;DHT22;10050;55.492;13.506;2022-10-04T20:03:17;13.80;99.90
19781;DHT22;10050;55.492;13.506;2022-10-04T20:05:48;13.80;99.90
19781;DHT22;10050;55.492;13.506;2022-10-04T20:08:43;13.80;99.90
19781;DHT22;10050;55.492;13.506;2022-10-04T20:19:39;13.80;99.90
19781;DHT22;10050;55.492;13.506;2022-10-04T20:27:05;13.90;99.90
19781;DHT22;10050;55.492;13.506;2022-10-04T20:35:03;14.00;99.90
19781;DHT22;10050;55.492;13.506;2022-10-04T20:45:47;14.00;99.90
19781;DHT22;10050;55.492;13.506;2022-10-04T20:50:44;14.00;99.90
19781;DHT22;10050;55.492;13.506;2022-10-04T20:53:25;14.00;99.90
19781;DHT22;10050;55.492;13.506;2022-10-04T20:59:13;14.10;99.90
19781;DHT22;10050;55.492;13.506;2022-10-04T21:01:39;14.00;99.90
19781;DHT22;10050;55.492;13.506;2022-10-04T21:06:56;14.00;99.90
19781;DHT22;10050;55.492;13.506;2022-10-04T21:09:23;14.10;99.90
19781;DHT22;10050;55.492;13.506;2022-10-04T21:11:51;14.10;99.90
19781;DHT22;10050;55.492;13.506;2022-10-04T21:16:55;14.00;99.90
19781;DHT22;10050;55.492;13.506;2022-10-04T21:22:04;14.00;99.90
19781;DHT22;10050;55.492;13.506;2022-10-04T21:24:40;14.00;99.90
19781;DHT22;10050;55.492;13.506;2022-10-04T21:27:10;14.00;99.90
19781;DHT22;10050;55.492;13.506;2022-10-04T21:29:40;14.10;99.90
19781;DHT22;10050;55.492;13.506;2022-10-04T21:32:05;14.10;99.90
19781;DHT22;10050;55.492;13.506;2022-10-04T21:34:31;14.10;99.90
19781;DHT22;10050;55.492;13.506;2022-10-04T21:36:56;14.10;99.90
19781;DHT22;10050;55.492;13.506;2022-10-04T21:39:23;14.10;99.90
19781;DHT22;10050;55.492;13.506;2022-10-04T21:41:48;14.10;99.90
19781;DHT22;10050;55.492;13.506;2022-10-04T21:44:14;14.10;99.90
19781;DHT22;10050;55.492;13.506;2022-10-04T21:46:40;14.10;99.90
19781;DHT22;10050;55.492;13.506;2022-10-04T21:49:06;14.10;99.90
19781;DHT22;10050;55.492;13.506;2022-10-04T21:51:31;14.10;99.90
19781;DHT22;10050;55.492;13.506;2022-10-04T21:54:03;14.10;99.90
19781;DHT22;10050;55.492;13.506;2022-10-04T21:56:29;14.10;99.90
19781;DHT22;10050;55.492;13.506;2022-10-04T21:58:55;14.10;99.90
19781;DHT22;10050;55.492;13.506;2022-10-04T22:01:21;14.10;99.90
19781;DHT22;10050;55.492;13.506;2022-10-04T22:03:47;14.10;99.90
19781;DHT22;10050;55.492;13.506;2022-10-04T22:06:13;14.00;99.90
19781;DHT22;10050;55.492;13.506;2022-10-04T22:08:39;14.00;99.90
19781;DHT22;10050;55.492;13.506;2022-10-04T22:11:05;14.00;99.90
19781;DHT22;10050;55.492;13.506;2022-10-04T22:13:30;14.00;99.90
19781;DHT22;10050;55.492;13.506;2022-10-04T22:15:56;14.00;99.90
19781;DHT22;10050;55.492;13.506;2022-10-04T22:18:22;14.00;99.90
19781;DHT22;10050;55.492;13.506;2022-10-04T22:20:48;14.00;99.90
19781;DHT22;10050;55.492;13.506;2022-10-04T22:23:18;14.00;99.90
19781;DHT22;10050;55.492;13.506;2022-10-04T22:25:44;14.00;99.90
19781;DHT22;10050;55.492;13.506;2022-10-04T22:28:19;14.00;99.90
19781;DHT22;10050;55.492;13.506;2022-10-04T22:30:46;14.00;99.90
19781;DHT22;10050;55.492;13.506;2022-10-04T22:36:11;14.00;99.90
19781;DHT22;10050;55.492;13.506;2022-10-04T22:38:38;14.00;99.90
19781;DHT22;10050;55.492;13.506;2022-10-04T22:41:12;14.00;99.90
19781;DHT22;10050;55.492;13.506;2022-10-04T22:43:38;14.00;99.90
19781;DHT22;10050;55.492;13.506;2022-10-04T22:46:04;14.00;99.90
19781;DHT22;10050;55.492;13.506;2022-10-04T22:48:31;14.00;99.90
19781;DHT22;10050;55.492;13.506;2022-10-04T22:50:57;14.00;99.90
19781;DHT22;10050;55.492;13.506;2022-10-04T22:53:22;14.00;99.90
19781;DHT22;10050;55.492;13.506;2022-10-04T22:55:49;14.00;99.90
19781;DHT22;10050;55.492;13.506;2022-10-04T22:58:16;14.00;99.90
19781;DHT22;10050;55.492;13.506;2022-10-04T23:00:43;14.00;99.90
19781;DHT22;10050;55.492;13.506;2022-10-04T23:03:29;14.00;99.90
19781;DHT22;10050;55.492;13.506;2022-10-04T23:06:00;14.00;99.90
19781;DHT22;10050;55.492;13.506;2022-10-04T23:08:26;14.00;99.90
19781;DHT22;10050;55.492;13.506;2022-10-04T23:10:57;14.00;99.90
19781;DHT22;10050;55.492;13.506;2022-10-04T23:13:23;14.00;99.90
19781;DHT22;10050;55.492;13.506;2022-10-04T23:15:49;14.00;99.90
19781;DHT22;10050;55.492;13.506;2022-10-04T23:18:16;14.00;99.90
19781;DHT22;10050;55.492;13.506;2022-10-04T23:20:43;14.00;99.90
19781;DHT22;10050;55.492;13.506;2022-10-04T23:23:13;14.00;99.90
19781;DHT22;10050;55.492;13.506;2022-10-04T23:25:46;14.00;99.90
19781;DHT22;10050;55.492;13.506;2022-10-04T23:28:15;13.90;99.90
19781;DHT22;10050;55.492;13.506;2022-10-04T23:30:41;13.90;99.90
19781;DHT22;10050;55.492;13.506;2022-10-04T23:33:15;13.90;99.90
19781;DHT22;10050;55.492;13.506;2022-10-04T23:35:42;13.90;99.90
19781;DHT22;10050;55.492;13.506;2022-10-04T23:38:14;13.90;99.90
19781;DHT22;10050;55.492;13.506;2022-10-04T23:40:40;13.80;99.90
19781;DHT22;10050;55.492;13.506;2022-10-04T23:43:16;13.80;99.90
19781;DHT22;10050;55.492;13.506;2022-10-04T23:45:42;13.90;99.90
19781;DHT22;10050;55.492;13.506;2022-10-04T23:48:10;13.80;99.90
19781;DHT22;10050;55.492;13.506;2022-10-04T23:50:38;13.80;99.90
19781;DHT22;10050;55.492;13.506;2022-10-04T23:53:10;13.80;99.90
19781;DHT22;10050;55.492;13.506;2022-10-04T23:55:39;13.80;99.90
19781;DHT22;10050;55.492;13.506;2022-10-04T23:58:21;13.70;99.90
